Time;durP1;ratioP1;P1;durP2;ratioP2;P2;SDS_P1;SDS_P2;PMS_P1;PMS_P2;Temp;Humidity;BMP_temperature;BMP_pressure;BME280_temperature;BME280_humidity;BME280_pressure;Samples;Min_cycle;Max_cycle;Signal;HPM_P1;HPM_P2
2024/04/13 12:12:06;;;;;;;3.30;1.17;;;;;;;-142.05;38.49;75381.91;17160723;25;20364;-70
2024/04/13 12:19:43;;;;;;;2.75;1.40;;;;;;;-142.05;37.92;75371.69;17128331;25;19998;-70
2024/04/13 12:27:22;;;;;;;5.65;1.25;;;;;;;-142.05;38.42;75359.47;17078814;25;20068;-70
2024/04/13 12:34:57;;;;;;;5.82;1.63;;;;;;;-142.05;38.45;75326.81;17037416;25;20002;-68
2024/04/13 12:42:36;;;;;;;4.65;1.30;;;;;;;-142.05;38.13;75281.91;17067087;25;20017;-70
2024/04/13 12:50:12;;;;;;;2.15;1.20;;;;;;;-142.05;38.13;75281.91;17067254;25;20006;-70
2024/04/13 12:57:51;;;;;;;5.40;1.40;;;;;;;-142.05;37.21;75255.38;17054449;25;20006;-70
2024/04/13 13:05:27;;;;;;;1.58;1.27;;;;;;;-142.05;100.00;59101.44;17075874;25;19994;-71
2024/04/13 13:13:07;;;;;;;3.90;1.50;;;;;;;-142.05;100.00;59101.44;17069783;25;19998;-70
2024/04/13 13:20:43;;;;;;;10.00;2.72;;;;;;;-142.05;38.17;75239.06;17028750;25;20094;-71
2024/04/13 13:28:22;;;;;;;4.22;1.45;;;;;;;-142.05;100.00;59101.44;17030559;26;20049;-72
2024/04/13 13:35:59;;;;;;;3.63;1.42;;;;;;;-142.05;36.95;75192.13;17029634;26;20006;-72
2024/04/13 13:43:38;;;;;;;2.45;1.45;;;;;;;-142.05;100.00;59101.44;17020590;26;20045;-69
2024/04/13 13:51:14;;;;;;;3.80;1.80;;;;;;;-142.05;36.89;75200.31;17016501;26;20500;-70
2024/04/13 13:58:55;;;;;;;3.80;1.63;;;;;;;-142.05;36.89;75200.31;17018337;26;20484;-70
2024/04/13 14:06:32;;;;;;;1.67;1.50;;;;;;;-142.05;100.00;59101.44;17009503;26;19998;-70
2024/04/13 14:14:12;;;;;;;2.22;1.33;;;;;;;-142.05;100.00;59101.44;17031252;26;20011;-70
2024/04/13 14:21:48;;;;;;;2.55;1.45;;;;;;;-142.05;100.00;59101.44;17035414;26;20389;-72
2024/04/13 14:29:26;;;;;;;2.97;1.33;;;;;;;-142.05;100.00;59101.44;17024043;26;20030;-70
2024/04/13 14:37:03;;;;;;;3.55;1.40;;;;;;;-142.05;100.00;59101.44;17029571;26;20006;-70
2024/04/13 14:44:41;;;;;;;3.88;2.00;;;;;;;-142.05;100.00;59101.44;17050874;26;20002;-70
2024/04/13 14:52:18;;;;;;;3.58;1.92;;;;;;;-142.05;100.00;59101.44;17041406;26;20002;-70
2024/04/13 14:59:57;;;;;;;5.00;1.70;;;;;;;-142.05;100.00;59101.44;17037118;26;20060;-71
2024/04/13 15:07:33;;;;;;;1.85;1.58;;;;;;;-142.05;100.00;59101.44;17044423;26;20003;-71
2024/04/13 15:15:14;;;;;;;2.15;1.30;;;;;;;-142.05;100.00;59101.44;17051623;26;19998;-70
2024/04/13 15:22:51;;;;;;;5.38;1.95;;;;;;;-142.05;100.00;59101.44;17041764;26;19999;-71
2024/04/13 15:30:30;;;;;;;3.30;1.60;;;;;;;-142.05;100.00;59101.44;17047774;26;20017;-70
2024/04/13 15:38:06;;;;;;;2.40;1.95;;;;;;;-142.05;100.00;59101.44;17062315;25;20017;-70
2024/04/13 15:45:50;;;;;;;3.97;1.88;;;;;;;-142.05;100.00;59101.44;17032335;26;20002;-70
2024/04/13 15:53:26;;;;;;;5.75;1.80;;;;;;;-142.05;100.00;59101.44;17011293;26;20002;-72
2024/04/13 16:01:05;;;;;;;3.00;1.70;;;;;;;-142.05;100.00;59101.44;17032402;26;20024;-70
2024/04/13 16:08:42;;;;;;;2.60;1.50;;;;;;;-142.05;100.00;59101.44;17045546;26;20792;-71
2024/04/13 16:16:21;;;;;;;2.58;2.30;;;;;;;-142.05;100.00;59101.44;17014337;26;20023;-70
2024/04/13 16:24:03;;;;;;;7.15;2.50;;;;;;;-142.05;100.00;59101.44;17014227;26;20016;-69
2024/04/13 16:31:42;;;;;;;3.25;1.95;;;;;;;-142.05;100.00;59101.44;17045760;25;20062;-69
2024/04/13 16:39:20;;;;;;;3.83;2.22;;;;;;;-142.05;100.00;59101.44;17049669;25;20013;-69
2024/04/13 16:47:00;;;;;;;4.97;1.60;;;;;;;-142.05;100.00;59101.44;17017030;26;19999;-69
2024/04/13 16:54:35;;;;;;;2.28;1.25;;;;;;;-142.05;100.00;59101.44;17031389;26;19998;-69
2024/04/13 17:02:15;;;;;;;4.03;2.22;;;;;;;-142.05;100.00;59101.44;17049847;25;20074;-69
2024/04/13 17:09:51;;;;;;;5.78;3.08;;;;;;;-142.05;100.00;59101.44;17047977;26;20524;-70
2024/04/13 17:17:32;;;;;;;2.50;1.70;;;;;;;-142.05;100.00;59101.44;17034950;26;19998;-70
2024/04/13 17:25:08;;;;;;;4.13;1.70;;;;;;;-142.05;100.00;59101.44;17043127;26;20039;-70
2024/04/13 17:32:47;;;;;;;2.75;2.30;;;;;;;-142.05;100.00;59101.44;17049556;26;20013;-70
2024/04/13 17:40:23;;;;;;;2.42;2.17;;;;;;;-142.05;100.00;59101.44;17045035;26;20464;-70
2024/04/13 17:48:02;;;;;;;3.17;2.10;;;;;;;-142.05;100.00;59101.44;17033903;26;20002;-70
2024/04/13 17:55:38;;;;;;;2.92;2.28;;;;;;;-142.05;100.00;59101.44;17033316;26;20002;-71
2024/04/13 18:03:16;;;;;;;7.85;3.08;;;;;;;-142.05;100.00;59101.44;17038151;26;20005;-73
2024/04/13 18:10:53;;;;;;;2.97;2.40;;;;;;;-142.05;100.00;59101.44;17029077;25;20001;-73
2024/04/13 18:18:32;;;;;;;3.53;2.38;;;;;;;-142.05;100.00;59101.44;17020791;26;20002;-74
2024/04/13 18:26:10;;;;;;;3.42;2.30;;;;;;;-142.05;100.00;59101.44;17036091;25;19999;-74
2024/04/13 18:33:48;;;;;;;2.85;2.28;;;;;;;-142.05;100.00;59101.44;17020718;26;20476;-74
2024/04/13 18:41:25;;;;;;;4.97;3.42;;;;;;;-142.05;100.00;59101.44;17034105;26;20006;-74
2024/04/13 18:49:04;;;;;;;6.97;4.60;;;;;;;-142.05;100.00;59101.44;16986909;26;19995;-74
2024/04/13 18:56:40;;;;;;;7.45;4.95;;;;;;;-142.05;100.00;59101.44;17019825;26;20460;-74
2024/04/13 19:04:20;;;;;;;9.48;5.97;;;;;;;-142.05;100.00;59101.44;17032348;26;20010;-74
2024/04/13 19:11:57;;;;;;;12.48;8.88;;;;;;;-142.05;100.00;59101.44;17025850;26;19994;-73
2024/04/13 19:19:37;;;;;;;12.68;8.80;;;;;;;-142.05;100.00;59101.44;17024262;26;20002;-75
2024/04/13 19:27:13;;;;;;;13.25;7.85;;;;;;;-142.05;100.00;59101.44;17013065;26;20484;-75
2024/04/13 19:34:51;;;;;;;11.98;7.25;;;;;;;-142.05;100.00;59101.44;17027945;25;20002;-73
2024/04/13 19:42:29;;;;;;;13.70;7.32;;;;;;;-142.05;100.00;59101.44;17031807;25;20458;-75
2024/04/13 19:50:09;;;;;;;12.77;7.35;;;;;;;-142.05;100.00;59101.44;17005548;26;20006;-75
2024/04/13 19:57:45;;;;;;;10.57;6.88;;;;;;;-142.05;100.00;59101.44;17021142;26;20074;-74
2024/04/13 20:05:24;;;;;;;7.85;6.00;;;;;;;-142.05;100.00;59101.44;17017201;26;20405;-75
2024/04/13 20:13:01;;;;;;;9.95;6.32;;;;;;;-142.05;100.00;59101.44;17026488;26;19998;-75
2024/04/13 20:20:41;;;;;;;7.25;5.40;;;;;;;-142.05;100.00;59101.44;17027867;26;20464;-75
2024/04/13 20:28:18;;;;;;;7.35;5.05;;;;;;;-142.05;100.00;59101.44;17039554;26;20006;-75
2024/04/13 20:35:56;;;;;;;5.82;5.00;;;;;;;-142.05;100.00;59101.44;17038398;26;19998;-74
2024/04/13 20:43:33;;;;;;;6.68;4.60;;;;;;;-142.05;100.00;59101.44;17046984;26;20003;-74
2024/04/13 20:51:15;;;;;;;5.55;5.05;;;;;;;-142.05;100.00;59101.44;17056435;26;20014;-74
2024/04/13 20:58:51;;;;;;;5.80;4.50;;;;;;;-142.05;100.00;59101.44;17057738;26;20022;-74
2024/04/13 21:06:29;;;;;;;7.63;4.47;;;;;;;-142.05;100.00;59101.44;17046394;26;19998;-75
2024/04/13 21:14:05;;;;;;;4.97;4.20;;;;;;;-142.05;100.00;59101.44;17052361;26;20007;-75
2024/04/13 21:21:45;;;;;;;4.90;3.88;;;;;;;-142.05;100.00;59101.44;17043890;26;20029;-74
2024/04/13 21:29:21;;;;;;;3.45;2.97;;;;;;;-142.05;100.00;59101.44;17057989;26;20005;-74
2024/04/13 21:37:00;;;;;;;5.82;3.60;;;;;;;-142.05;100.00;59101.44;17051214;26;19998;-74
2024/04/13 21:44:36;;;;;;;3.70;3.30;;;;;;;-142.05;100.00;59101.44;17053682;26;20002;-74
2024/04/13 21:52:15;;;;;;;4.15;3.10;;;;;;;-142.05;100.00;59101.44;17046154;26;20027;-74
2024/04/13 21:59:51;;;;;;;4.38;2.72;;;;;;;-142.05;100.00;59101.44;17042927;26;19998;-74
2024/04/13 22:07:29;;;;;;;3.05;2.53;;;;;;;-142.05;100.00;59101.44;17056762;26;20002;-74
2024/04/13 22:15:06;;;;;;;2.75;2.28;;;;;;;-142.05;100.00;59101.44;17047698;26;19999;-74
2024/04/13 22:22:45;;;;;;;4.65;2.53;;;;;;;-142.05;100.00;59101.44;17044267;26;20006;-74
2024/04/13 22:30:21;;;;;;;2.60;2.33;;;;;;;-142.05;100.00;59101.44;17032557;26;20026;-74
2024/04/13 22:38:01;;;;;;;3.47;2.38;;;;;;;-142.05;100.00;59101.44;17020192;26;20031;-73
2024/04/13 22:45:37;;;;;;;3.75;2.50;;;;;;;-142.05;100.00;59101.44;17044554;26;20098;-74
2024/04/13 22:53:16;;;;;;;3.20;2.33;;;;;;;-142.05;100.00;59101.44;17037768;26;20006;-74
2024/04/13 23:00:57;;;;;;;3.05;2.40;;;;;;;-142.05;100.00;59101.44;17015528;26;19998;-75
2024/04/13 23:08:35;;;;;;;3.53;2.83;;;;;;;-142.05;100.00;59101.44;17014150;26;20002;-74
2024/04/13 23:16:11;;;;;;;4.22;2.33;;;;;;;-142.05;100.00;59101.44;17038378;26;19994;-74
2024/04/13 23:23:51;;;;;;;3.80;1.92;;;;;;;-142.05;100.00;59101.44;17048014;26;20036;-75
2024/04/13 23:31:27;;;;;;;4.25;2.22;;;;;;;-142.05;100.00;59101.44;17045343;26;20071;-74
2024/04/13 23:39:13;;;;;;;4.38;1.95;;;;;;;-142.05;100.00;59101.44;17023659;26;20006;-75
2024/04/13 23:46:49;;;;;;;3.22;2.22;;;;;;;-142.05;100.00;59101.44;17039289;26;20013;-75
2024/04/13 23:54:28;;;;;;;2.78;1.80;;;;;;;-142.05;100.00;59101.44;17038362;26;20043;-74
